Airfield :







YOU CAN JOIN US ON...

 
LOGIN :

Register | Disclaimer

   EN    FR    IT 

 









Legend :    VFR   Marginal VFR   IFR   Intensive IFR   Very Intensive IFR
Visi :
Ceiling :
>= 8 km
>= 3000ft
5 to 8 km
1000 to 3000 ft
1500m to 5 km
500 to 1000 ft
800 to 1500m
200 to 500 ft
< 800m
< 200 ft
Symbols :   Thunderstorms  Fog  Heavy snow  Heavy precipitations  Wind > 20 kt







- Airport Elevation : 283 ft
- IATA code : GOH


BGGH - Nuuk

CURRENT METAR :
  • 232150Z 11019KT 9999 FEW015 BKN200 M12/M18 Q1010

EXPIRED METARs :
  • 232050Z 13011KT 9999 FEW015 BKN200 M11/M19 Q1011
  • 231950Z 12013KT 9999 FEW015 SCT200 M10/M19 Q1011

TAF TAF BGGH
Valid from the 23 at 18:00 until the 23 at 23:00 UTC


231731Z 2318/2323 12015KT 9999 FEW020 SCT120
PROB40 2318/2320 2500 -SHSN DRSN FEW012 BKN020
TEMPO 2320/2323 DRSN
BGGL FIR / North America



MET'MAP, your aeronautical weather chart ! - Copyright ORBIFLY December 2007 - Disclaimer

ORBIFLY MET'MAP TEAM :

Programming & Development : Alexandra Zaïnal
Concept & Development : Baudouin d'Aumeries
Co-Development & Prog : Marc-Olivier Méhu
Technical & hardware support : Manuel Goepfert

Contact : metmap@orbifly.com




SOURCES & CREDITS :

   NOAA